Time;durP1;ratioP1;P1;durP2;ratioP2;P2;SDS_P1;SDS_P2;PMS_P1;PMS_P2;Temp;Humidity;BMP_temperature;BMP_pressure;BME280_temperature;BME280_humidity;BME280_pressure;Samples;Min_cycle;Max_cycle;Signal;HPM_P1;HPM_P2
2022/12/12 00:00:49;;;;;;;26.73;17.67;;;;;;;-148.33;100.00;56587.81;4988572;28;20033;-63
2022/12/12 00:03:16;;;;;;;24.03;17.63;;;;;;;-148.33;100.00;56587.81;4985738;28;20038;-63
2022/12/12 00:05:41;;;;;;;26.60;16.80;;;;;;;-148.33;100.00;56587.81;4987795;28;20026;-63
2022/12/12 00:08:06;;;;;;;23.63;16.93;;;;;;;-148.33;100.00;56587.81;4987671;28;20494;-63
2022/12/12 00:10:33;;;;;;;26.33;17.77;;;;;;;-148.33;100.00;56587.81;4987156;28;20038;-63
2022/12/12 00:12:58;;;;;;;25.13;16.60;;;;;;;-148.33;100.00;56587.81;4985817;28;20471;-63
2022/12/12 00:15:24;;;;;;;27.67;17.93;;;;;;;-148.33;100.00;56587.81;4987656;28;20080;-63
2022/12/12 00:17:49;;;;;;;24.50;16.83;;;;;;;-148.33;100.00;56587.81;4987988;28;20079;-62
2022/12/12 00:20:15;;;;;;;30.40;19.43;;;;;;;-148.33;100.00;56587.81;4987023;28;20032;-63
2022/12/12 00:22:40;;;;;;;23.47;17.00;;;;;;;-148.33;100.00;56587.81;4987597;28;20108;-63
2022/12/12 00:25:05;;;;;;;24.37;17.40;;;;;;;-148.33;100.00;56587.81;4987114;28;20030;-63
2022/12/12 00:27:32;;;;;;;25.33;18.27;;;;;;;-148.33;100.00;56587.81;4985853;28;20054;-63
2022/12/12 00:29:57;;;;;;;28.07;19.20;;;;;;;-148.33;100.00;56587.81;4987683;28;20022;-63
2022/12/12 00:32:23;;;;;;;25.03;17.77;;;;;;;-148.33;100.00;56587.81;4987270;28;20057;-62
2022/12/12 00:34:48;;;;;;;30.47;19.27;;;;;;;-148.33;100.00;56587.81;4987573;28;20034;-63
2022/12/12 00:37:13;;;;;;;25.47;17.60;;;;;;;-148.33;100.00;56587.81;4987584;28;20372;-63
2022/12/12 00:39:39;;;;;;;25.60;18.30;;;;;;;-148.33;100.00;56587.81;4988086;28;20030;-63
2022/12/12 00:42:04;;;;;;;28.70;17.60;;;;;;;-148.33;100.00;56587.81;4986737;28;20045;-63
2022/12/12 00:44:30;;;;;;;25.17;18.60;;;;;;;-148.33;100.00;56587.81;4987066;28;20055;-62
2022/12/12 00:46:55;;;;;;;28.70;19.23;;;;;;;-148.33;100.00;56587.81;4987926;28;20097;-62
2022/12/12 00:49:21;;;;;;;24.50;18.47;;;;;;;-148.33;100.00;56587.81;4987805;28;20026;-63
2022/12/12 00:51:47;;;;;;;27.03;18.10;;;;;;;-148.33;100.00;56587.81;4983907;28;20110;-62
2022/12/12 00:54:12;;;;;;;25.87;17.53;;;;;;;-148.33;100.00;56587.81;4987578;28;20125;-63
2022/12/12 00:56:38;;;;;;;29.00;18.77;;;;;;;-148.33;100.00;56587.81;4987480;28;20026;-63
2022/12/12 00:59:03;;;;;;;30.90;20.07;;;;;;;-148.33;100.00;56587.81;4988192;28;20183;-62
2022/12/12 01:01:30;;;;;;;29.37;19.93;;;;;;;-148.33;100.00;56587.81;4987775;28;20507;-62
2022/12/12 01:03:56;;;;;;;28.83;18.10;;;;;;;-148.33;100.00;56587.81;4987520;28;20080;-63
2022/12/12 01:06:22;;;;;;;26.97;17.90;;;;;;;-148.33;100.00;56587.81;4987002;28;20018;-62
2022/12/12 01:08:47;;;;;;;27.70;19.17;;;;;;;-148.33;100.00;56587.81;4976211;28;20509;-63
2022/12/12 01:11:14;;;;;;;29.00;19.93;;;;;;;-148.33;100.00;56587.81;4984261;28;20374;-63
2022/12/12 01:13:40;;;;;;;26.70;18.50;;;;;;;-148.33;100.00;56587.81;4987711;28;20367;-63
2022/12/12 01:16:06;;;;;;;27.20;18.73;;;;;;;-148.33;100.00;56587.81;4986688;28;20045;-63
2022/12/12 01:18:32;;;;;;;27.90;17.33;;;;;;;-148.33;100.00;56587.81;4988083;28;20026;-63
2022/12/12 01:20:57;;;;;;;29.80;19.27;;;;;;;-148.33;100.00;56587.81;4987494;28;20030;-62
2022/12/12 01:23:23;;;;;;;27.63;18.50;;;;;;;-148.33;100.00;56587.81;4987779;28;20041;-63
2022/12/12 01:25:48;;;;;;;27.63;18.97;;;;;;;-148.33;100.00;56587.81;4988488;28;20030;-62
2022/12/12 01:28:13;;;;;;;28.63;18.90;;;;;;;-148.33;100.00;56587.81;4987600;28;20393;-63
2022/12/12 01:30:39;;;;;;;31.13;19.30;;;;;;;-148.33;100.00;56587.81;4987321;28;20038;-63
2022/12/12 01:33:04;;;;;;;28.33;19.23;;;;;;;-148.33;100.00;56587.81;4983379;28;20077;-63
2022/12/12 01:35:32;;;;;;;26.90;18.60;;;;;;;-148.33;100.00;56587.81;4979070;28;20034;-63
2022/12/12 01:37:57;;;;;;;30.20;20.47;;;;;;;-148.33;100.00;56587.81;4987427;28;20026;-63
2022/12/12 01:40:26;;;;;;;28.50;20.17;;;;;;;-148.33;100.00;56587.81;4987803;28;20026;-63
2022/12/12 01:42:52;;;;;;;27.07;18.10;;;;;;;-148.33;100.00;56587.81;4986811;28;20105;-63
2022/12/12 01:45:54;;;;;;;31.57;19.70;;;;;;;-148.33;100.00;56587.81;4987137;28;20467;-63
2022/12/12 01:48:22;;;;;;;25.40;18.03;;;;;;;-148.33;100.00;56587.81;4987282;28;20026;-63
2022/12/12 01:50:49;;;;;;;27.83;19.03;;;;;;;-148.33;100.00;56587.81;4989254;28;20054;-63
2022/12/12 01:53:18;;;;;;;29.57;19.30;;;;;;;-148.33;100.00;56587.81;4991179;28;20101;-63
2022/12/12 01:55:45;;;;;;;29.53;18.73;;;;;;;-148.33;100.00;56587.81;4990840;28;20033;-63
2022/12/12 01:58:11;;;;;;;26.07;18.47;;;;;;;-148.33;100.00;56587.81;4989961;28;20034;-63
2022/12/12 02:00:36;;;;;;;27.47;19.07;;;;;;;-148.33;100.00;56587.81;4989580;28;20033;-63
2022/12/12 02:03:02;;;;;;;27.10;19.87;;;;;;;-148.33;100.00;56587.81;4990569;28;20123;-63
2022/12/12 02:05:32;;;;;;;27.77;18.57;;;;;;;-148.33;100.00;56587.81;4990517;28;20030;-63
2022/12/12 02:08:00;;;;;;;30.50;19.67;;;;;;;-148.33;100.00;56587.81;4989846;28;20018;-63
2022/12/12 02:10:26;;;;;;;28.20;19.60;;;;;;;-148.33;100.00;56587.81;4990927;28;20157;-63
2022/12/12 02:12:57;;;;;;;28.40;19.63;;;;;;;-148.33;100.00;56587.81;4990449;28;20105;-62
2022/12/12 02:15:29;;;;;;;27.98;20.40;;;;;;;-148.33;100.00;56587.81;4990345;28;20022;-62
2022/12/12 02:18:10;;;;;;;29.00;19.00;;;;;;;-148.33;100.00;56587.81;4990447;28;20030;-63
2022/12/12 02:20:47;;;;;;;26.48;18.48;;;;;;;-148.33;100.00;56587.81;4990040;28;20019;-63
2022/12/12 02:23:33;;;;;;;27.67;18.50;;;;;;;-148.33;100.00;56587.81;4991133;28;20037;-62
2022/12/12 02:26:19;;;;;;;27.20;19.33;;;;;;;-148.33;100.00;56587.81;4990405;28;20076;-63
2022/12/12 02:29:32;;;;;;;31.30;18.57;;;;;;;-148.33;100.00;56587.81;4990420;28;20108;-63
2022/12/12 02:32:16;;;;;;;27.47;18.77;;;;;;;-148.33;100.00;56587.81;4986459;28;20372;-63
2022/12/12 02:34:52;;;;;;;27.53;18.00;;;;;;;-148.33;100.00;56587.81;4989429;28;20026;-65
2022/12/12 02:37:38;;;;;;;28.03;17.83;;;;;;;-148.33;100.00;56587.81;4979952;28;20018;-65
2022/12/12 02:40:19;;;;;;;30.60;19.23;;;;;;;-148.33;100.00;56587.81;4980171;28;20053;-65
2022/12/12 02:43:22;;;;;;;27.67;18.20;;;;;;;-148.33;100.00;56587.81;4974606;28;20038;-65
2022/12/12 02:45:53;;;;;;;32.63;19.57;;;;;;;-148.33;100.00;56587.81;4983319;28;20053;-65
2022/12/12 02:48:29;;;;;;;29.63;19.87;;;;;;;-148.33;100.00;56587.81;4989898;28;20058;-65
2022/12/12 02:50:57;;;;;;;26.50;17.70;;;;;;;-148.33;100.00;56587.81;4975583;28;20070;-66
2022/12/12 02:53:23;;;;;;;28.87;18.20;;;;;;;-148.33;100.00;56587.81;4990628;28;20546;-65
2022/12/12 02:55:49;;;;;;;30.60;19.47;;;;;;;-148.33;100.00;56587.81;4988939;28;20149;-65
2022/12/12 02:58:17;;;;;;;26.70;18.13;;;;;;;-148.33;100.00;56587.81;4989208;28;20206;-66
2022/12/12 03:01:09;;;;;;;27.70;18.60;;;;;;;-148.33;100.00;56587.81;4989215;28;20518;-65
2022/12/12 03:09:50;;;;;;;27.50;17.93;;;;;;;-148.33;100.00;56587.81;4981139;28;20455;-62
2022/12/12 03:12:47;;;;;;;27.03;17.73;;;;;;;-148.33;100.00;56587.81;4987695;28;20030;-63
2022/12/12 03:15:21;;;;;;;28.57;18.23;;;;;;;-148.33;100.00;56587.81;4988821;28;20023;-65
2022/12/12 03:18:18;;;;;;;28.60;18.47;;;;;;;-148.33;100.00;56587.81;4988932;28;20030;-65
2022/12/12 03:20:46;;;;;;;29.57;18.23;;;;;;;-148.33;100.00;56587.81;4980710;28;20066;-65
2022/12/12 03:23:14;;;;;;;30.13;18.67;;;;;;;-148.33;100.00;56587.81;4989113;28;20073;-65
2022/12/12 03:25:48;;;;;;;29.10;18.00;;;;;;;-148.33;100.00;56587.81;4988190;28;20042;-66
2022/12/12 03:28:28;;;;;;;28.13;19.00;;;;;;;-148.33;100.00;56587.81;4988092;28;20026;-65
2022/12/12 03:30:56;;;;;;;26.27;17.10;;;;;;;-148.33;100.00;56587.81;4987600;28;20034;-65
2022/12/12 03:33:31;;;;;;;29.87;17.43;;;;;;;-148.33;100.00;56587.81;4980551;28;20282;-65
2022/12/12 03:36:26;;;;;;;28.50;18.00;;;;;;;-148.33;100.00;56587.81;4985920;28;20037;-65
2022/12/12 03:39:17;;;;;;;25.23;17.33;;;;;;;-148.33;100.00;56587.81;4961789;28;20094;-65
2022/12/12 03:41:50;;;;;;;27.30;16.60;;;;;;;-148.33;100.00;56587.81;4988343;28;20507;-65
2022/12/12 03:44:34;;;;;;;26.30;17.00;;;;;;;-148.33;100.00;56587.81;4984654;28;20061;-65
2022/12/12 03:47:23;;;;;;;28.33;17.87;;;;;;;-148.33;100.00;56587.81;4988238;28;20057;-65
2022/12/12 03:50:05;;;;;;;26.97;17.33;;;;;;;-148.33;100.00;56587.81;4988702;28;20052;-65
2022/12/12 03:52:43;;;;;;;28.57;17.83;;;;;;;-148.33;100.00;56587.81;4985281;28;20096;-65
2022/12/12 03:55:23;;;;;;;29.57;17.57;;;;;;;-148.33;100.00;56587.81;4987995;28;20026;-65
2022/12/12 03:58:01;;;;;;;27.40;16.97;;;;;;;-148.33;100.00;56587.81;4980241;28;20065;-65
2022/12/12 04:00:30;;;;;;;27.03;16.60;;;;;;;-148.33;100.00;56587.81;4987194;28;20494;-65
2022/12/12 04:03:07;;;;;;;27.03;16.63;;;;;;;-148.33;100.00;56587.81;4987963;28;20034;-65
2022/12/12 04:06:25;;;;;;;29.30;17.27;;;;;;;-148.33;100.00;56587.81;4987707;28;20207;-65
2022/12/12 04:08:28;;;;;;;28.67;17.07;;;;;;;-148.33;100.00;56587.81;4987707;28;20154;-65
2022/12/12 04:14:19;;;;;;;28.03;16.20;;;;;;;-148.33;100.00;56587.81;4979271;28;20505;-65
2022/12/12 04:16:47;;;;;;;24.53;16.10;;;;;;;-148.33;100.00;56587.81;4977447;28;20026;-65
2022/12/12 04:23:14;;;;;;;27.83;16.87;;;;;;;-148.33;100.00;56587.81;4987080;28;20049;-65
2022/12/12 04:25:01;;;;;;;26.93;17.30;;;;;;;-148.33;100.00;56587.81;4987454;28;20517;-65
2022/12/12 04:27:31;;;;;;;28.53;17.43;;;;;;;-148.33;100.00;56587.81;4988090;28;20061;-65
2022/12/12 04:30:06;;;;;;;29.00;17.35;;;;;;;-148.33;100.00;56587.81;4987368;28;20105;-65
2022/12/12 04:32:52;;;;;;;28.20;16.90;;;;;;;-148.33;100.00;56587.81;4987053;28;20026;-65
2022/12/12 04:35:24;;;;;;;24.00;16.27;;;;;;;-148.33;100.00;56587.81;4987502;28;20068;-65
2022/12/12 04:37:53;;;;;;;28.83;17.57;;;;;;;-148.33;100.00;56587.81;4987554;28;20429;-65
2022/12/12 04:40:41;;;;;;;26.90;17.20;;;;;;;-148.33;100.00;56587.81;4985863;28;20121;-65
2022/12/12 04:43:13;;;;;;;27.20;17.27;;;;;;;-148.33;100.00;56587.81;4986270;28;20026;-65
2022/12/12 04:45:42;;;;;;;26.00;16.23;;;;;;;-148.33;100.00;56587.81;4986574;28;20081;-65
2022/12/12 04:48:13;;;;;;;29.63;17.73;;;;;;;-148.33;100.00;56587.81;4987326;28;20033;-65
2022/12/12 04:50:42;;;;;;;29.00;17.02;;;;;;;-148.33;100.00;56587.81;4987250;28;20023;-65
2022/12/12 04:53:13;;;;;;;24.83;17.07;;;;;;;-148.33;100.00;56587.81;4987514;28;20033;-65
2022/12/12 04:55:42;;;;;;;30.53;17.33;;;;;;;-148.33;100.00;56587.81;4987250;28;20018;-65
2022/12/12 04:58:08;;;;;;;29.10;19.23;;;;;;;-148.33;100.00;56587.81;4983748;28;20060;-65
2022/12/12 05:00:45;;;;;;;27.33;16.93;;;;;;;-148.33;100.00;56587.81;4978653;28;20058;-65
2022/12/12 05:03:31;;;;;;;30.53;17.83;;;;;;;-148.33;100.00;56587.81;4985587;28;20030;-65
2022/12/12 05:06:00;;;;;;;27.07;17.33;;;;;;;-148.33;100.00;56587.81;4986523;28;20026;-65
2022/12/12 05:08:35;;;;;;;28.57;17.83;;;;;;;-148.33;100.00;56587.81;4987244;28;20031;-65
2022/12/12 05:11:03;;;;;;;28.37;18.23;;;;;;;-148.33;100.00;56587.81;4986812;28;20375;-64
2022/12/12 05:13:35;;;;;;;26.27;16.80;;;;;;;-148.33;100.00;56587.81;4987912;28;20490;-65
2022/12/12 05:16:03;;;;;;;28.60;18.17;;;;;;;-148.33;100.00;56587.81;4986872;28;20113;-65
2022/12/12 05:18:30;;;;;;;28.20;17.63;;;;;;;-148.33;100.00;56587.81;4987624;28;20060;-65
2022/12/12 05:20:55;;;;;;;26.57;17.37;;;;;;;-148.33;100.00;56587.81;4986940;28;20570;-65
2022/12/12 05:23:20;;;;;;;27.67;17.60;;;;;;;-148.33;100.00;56587.81;4987141;28;20117;-65
2022/12/12 05:25:46;;;;;;;28.03;17.50;;;;;;;-148.33;100.00;56587.81;4989769;28;20027;-64
2022/12/12 05:28:11;;;;;;;27.33;17.37;;;;;;;-148.33;100.00;56587.81;4990642;28;20040;-65
2022/12/12 05:30:36;;;;;;;26.37;16.93;;;;;;;-148.33;100.00;56587.81;4990281;28;20572;-65
2022/12/12 05:33:01;;;;;;;29.07;18.73;;;;;;;-148.33;100.00;56587.81;4990785;28;20114;-65
2022/12/12 05:35:27;;;;;;;28.03;17.13;;;;;;;-148.33;100.00;56587.81;4990118;28;20442;-65
2022/12/12 05:37:52;;;;;;;28.83;18.20;;;;;;;-148.33;100.00;56587.81;4990078;28;20030;-65
2022/12/12 05:40:19;;;;;;;25.27;16.53;;;;;;;-148.33;100.00;56587.81;4990511;28;20026;-65
2022/12/12 05:42:44;;;;;;;27.80;17.47;;;;;;;-148.33;100.00;56587.81;4990188;28;20568;-65
2022/12/12 05:45:10;;;;;;;32.00;17.67;;;;;;;-148.33;100.00;56587.81;4987130;28;20054;-65
2022/12/12 05:47:35;;;;;;;29.50;17.83;;;;;;;-148.33;100.00;56587.81;4989450;28;20042;-65
2022/12/12 05:50:01;;;;;;;29.43;17.37;;;;;;;-148.33;100.00;56587.81;4987416;28;20262;-65
2022/12/12 05:52:26;;;;;;;25.73;16.47;;;;;;;-148.33;100.00;56587.81;4986445;28;20030;-65
2022/12/12 05:54:52;;;;;;;27.57;17.43;;;;;;;-148.33;100.00;56587.81;4988770;28;20054;-65
2022/12/12 05:57:18;;;;;;;27.00;16.20;;;;;;;-148.33;100.00;56587.81;4990492;28;20105;-65
2022/12/12 05:59:47;;;;;;;28.63;16.97;;;;;;;-148.33;100.00;56587.81;4990159;28;20129;-65
2022/12/12 06:02:13;;;;;;;26.23;16.60;;;;;;;-148.33;100.00;56587.81;4990465;28;20033;-65
2022/12/12 06:04:39;;;;;;;29.77;17.60;;;;;;;-148.33;100.00;56587.81;4989179;28;20027;-65
2022/12/12 06:07:05;;;;;;;24.93;15.63;;;;;;;-148.33;100.00;56587.81;4990476;28;20037;-65
2022/12/12 06:09:30;;;;;;;25.70;16.87;;;;;;;-148.33;100.00;56587.81;4989641;28;20030;-64
2022/12/12 06:11:56;;;;;;;27.10;15.57;;;;;;;-148.33;100.00;56587.81;4990024;28;20030;-65
2022/12/12 06:14:21;;;;;;;28.67;16.43;;;;;;;-148.33;100.00;56587.81;4990221;28;20084;-65
2022/12/12 06:16:46;;;;;;;27.47;17.53;;;;;;;-148.33;100.00;56587.81;4987698;28;20212;-65
2022/12/12 06:19:11;;;;;;;28.63;17.03;;;;;;;-148.33;100.00;56587.81;4989672;28;20057;-65
2022/12/12 06:21:37;;;;;;;27.97;15.77;;;;;;;-148.33;100.00;56587.81;4989514;28;20544;-65
2022/12/12 06:24:06;;;;;;;28.17;16.87;;;;;;;-148.33;100.00;56587.81;4989531;28;20033;-65
2022/12/12 06:26:31;;;;;;;28.00;16.10;;;;;;;-148.33;100.00;56587.81;4989858;28;20026;-65
2022/12/12 06:28:57;;;;;;;27.43;16.70;;;;;;;-148.33;100.00;56587.81;4990413;28;20140;-65
2022/12/12 06:31:23;;;;;;;25.07;16.07;;;;;;;-148.33;100.00;56587.81;4989671;28;20122;-65
2022/12/12 06:33:48;;;;;;;31.73;16.00;;;;;;;-148.33;100.00;56587.81;4989393;28;20054;-65
2022/12/12 06:36:22;;;;;;;28.13;16.77;;;;;;;-148.33;100.00;56587.81;4989671;28;20065;-66
2022/12/12 06:38:50;;;;;;;25.53;15.27;;;;;;;-148.33;100.00;56587.81;4989788;28;20038;-65
2022/12/12 06:41:15;;;;;;;28.67;16.67;;;;;;;-148.33;100.00;56587.81;4989700;28;20045;-65
2022/12/12 06:43:41;;;;;;;29.57;17.50;;;;;;;-148.33;100.00;56587.81;4989115;28;20030;-65
2022/12/12 06:46:11;;;;;;;25.63;15.67;;;;;;;-148.33;100.00;56587.81;4988397;28;20062;-65
2022/12/12 06:48:36;;;;;;;26.23;14.43;;;;;;;-148.33;100.00;56587.81;4989283;28;20132;-65
2022/12/12 06:51:07;;;;;;;29.53;15.50;;;;;;;-148.33;100.00;56587.81;4988609;28;20491;-65
2022/12/12 06:53:32;;;;;;;24.98;15.80;;;;;;;-148.33;100.00;56587.81;4989520;28;20027;-65
2022/12/12 06:55:57;;;;;;;29.13;16.33;;;;;;;-148.33;100.00;56587.81;4989083;28;20046;-65
2022/12/12 06:58:23;;;;;;;23.17;15.03;;;;;;;-148.33;100.00;56587.81;4989493;28;20029;-65
2022/12/12 07:00:52;;;;;;;27.20;15.77;;;;;;;-148.33;100.00;56587.81;4988201;28;20026;-64
2022/12/12 07:03:17;;;;;;;28.73;16.63;;;;;;;-148.33;100.00;56587.81;4989571;28;20034;-65
2022/12/12 07:05:44;;;;;;;30.40;16.87;;;;;;;-148.33;100.00;56587.81;4989565;28;20320;-65
2022/12/12 07:08:09;;;;;;;27.77;16.17;;;;;;;-148.33;100.00;56587.81;4989175;28;20030;-65
2022/12/12 07:10:35;;;;;;;27.60;16.50;;;;;;;-148.33;100.00;56587.81;4988252;28;20109;-65
2022/12/12 07:13:00;;;;;;;27.33;15.27;;;;;;;-148.33;100.00;56587.81;4988668;28;20470;-65
2022/12/12 07:15:26;;;;;;;25.00;15.27;;;;;;;-148.33;100.00;56587.81;4988088;28;20026;-65
2022/12/12 07:17:52;;;;;;;27.63;15.77;;;;;;;-148.33;100.00;56587.81;4986457;28;20025;-65
2022/12/12 07:20:18;;;;;;;32.00;14.90;;;;;;;-148.33;100.00;56587.81;4985440;28;20490;-65
2022/12/12 07:22:43;;;;;;;27.77;14.23;;;;;;;-148.33;100.00;56587.81;4986628;28;20025;-65
2022/12/12 07:25:09;;;;;;;23.70;14.80;;;;;;;-148.33;100.00;56587.81;4986997;28;20022;-65
2022/12/12 07:27:34;;;;;;;23.10;13.67;;;;;;;-148.33;100.00;56587.81;4987302;28;20427;-65
2022/12/12 07:29:59;;;;;;;25.03;15.80;;;;;;;-148.33;100.00;56587.81;4986555;28;20026;-66
2022/12/12 07:32:25;;;;;;;29.17;15.37;;;;;;;-148.33;100.00;56587.81;4987369;28;20510;-65
2022/12/12 07:34:50;;;;;;;28.40;15.80;;;;;;;-148.33;100.00;56587.81;4988029;28;20042;-65
2022/12/12 07:37:15;;;;;;;30.30;16.47;;;;;;;-148.33;100.00;56587.81;4988410;28;20072;-65
2022/12/12 07:39:40;;;;;;;27.17;15.47;;;;;;;-148.33;100.00;56587.81;4987479;28;20026;-65
2022/12/12 07:42:06;;;;;;;25.57;15.07;;;;;;;-148.33;100.00;56587.81;4988324;28;20037;-65
2022/12/12 07:44:31;;;;;;;26.63;15.80;;;;;;;-148.33;100.00;56587.81;4987914;28;20033;-65
2022/12/12 07:46:57;;;;;;;27.33;15.50;;;;;;;-148.33;100.00;56587.81;4987929;28;20046;-65
2022/12/12 07:49:23;;;;;;;26.07;13.63;;;;;;;-148.33;100.00;56587.81;4987659;28;20029;-65
2022/12/12 07:51:48;;;;;;;30.20;17.17;;;;;;;-148.33;100.00;56587.81;4985361;28;20484;-65
2022/12/12 07:54:13;;;;;;;27.53;16.10;;;;;;;-148.33;100.00;56587.81;4987361;28;20502;-65
2022/12/12 07:56:39;;;;;;;27.73;17.07;;;;;;;-148.33;100.00;56587.81;4980361;28;20026;-65
2022/12/12 07:59:04;;;;;;;30.00;16.97;;;;;;;-148.33;100.00;56587.81;4985627;28;20022;-65
2022/12/12 08:01:29;;;;;;;28.00;15.37;;;;;;;-148.33;100.00;56587.81;4988301;28;20045;-65
2022/12/12 08:03:55;;;;;;;25.77;14.80;;;;;;;-148.33;100.00;56587.81;4988164;28;20126;-65
2022/12/12 08:06:21;;;;;;;29.03;16.13;;;;;;;-148.33;100.00;56587.81;4987375;28;20023;-65
2022/12/12 08:08:48;;;;;;;25.27;15.93;;;;;;;-148.33;100.00;56587.81;4987505;28;20359;-65
2022/12/12 08:11:16;;;;;;;29.57;16.37;;;;;;;-148.33;100.00;56587.81;4988536;28;20030;-65
2022/12/12 08:13:41;;;;;;;27.83;15.90;;;;;;;-148.33;100.00;56587.81;4987301;28;20030;-65
2022/12/12 08:16:12;;;;;;;29.47;17.80;;;;;;;-148.33;100.00;56587.81;4987248;28;20076;-65
2022/12/12 08:18:37;;;;;;;25.25;15.80;;;;;;;-148.33;100.00;56587.81;4986626;28;20030;-65
2022/12/12 08:21:07;;;;;;;30.00;16.97;;;;;;;-148.33;100.00;56587.81;4988419;28;20033;-65
2022/12/12 08:23:32;;;;;;;26.90;16.73;;;;;;;-148.33;100.00;56587.81;4987618;28;20033;-65
2022/12/12 08:26:03;;;;;;;35.90;19.27;;;;;;;-148.33;100.00;56587.81;4987084;28;20030;-65
2022/12/12 08:28:28;;;;;;;30.70;17.63;;;;;;;-148.33;100.00;56587.81;4986639;28;20472;-65
2022/12/12 08:30:53;;;;;;;32.70;19.20;;;;;;;-148.33;100.00;56587.81;4987913;28;20313;-64
2022/12/12 08:33:18;;;;;;;31.30;18.13;;;;;;;-148.33;100.00;56587.81;4986934;28;20038;-65
2022/12/12 08:35:44;;;;;;;30.47;17.40;;;;;;;-148.33;100.00;56587.81;4987651;28;20109;-65
2022/12/12 08:38:10;;;;;;;33.03;17.30;;;;;;;-148.33;100.00;56587.81;4986404;28;20034;-65
2022/12/12 08:40:35;;;;;;;29.80;17.77;;;;;;;-148.33;100.00;56587.81;4987683;28;20040;-65
2022/12/12 08:43:00;;;;;;;31.33;17.53;;;;;;;-148.33;100.00;56587.81;4986458;28;20101;-65
2022/12/12 08:45:25;;;;;;;31.17;17.03;;;;;;;-148.33;100.00;56587.81;4986910;28;20034;-65
2022/12/12 08:47:51;;;;;;;29.97;16.93;;;;;;;-148.33;100.00;56587.81;4986073;28;20034;-65
2022/12/12 08:50:16;;;;;;;32.00;19.30;;;;;;;-148.33;100.00;56587.81;4987153;28;20478;-65
2022/12/12 08:52:41;;;;;;;29.37;16.63;;;;;;;-148.33;100.00;56587.81;4987460;28;20200;-65
2022/12/12 08:55:07;;;;;;;32.60;17.60;;;;;;;-148.33;100.00;56587.81;4987934;28;20054;-65
2022/12/12 08:57:32;;;;;;;31.87;17.37;;;;;;;-148.33;100.00;56587.81;4987340;28;20073;-65
2022/12/12 08:59:57;;;;;;;29.47;17.57;;;;;;;-148.33;100.00;56587.81;4990019;28;20059;-65
2022/12/12 09:02:23;;;;;;;28.43;17.27;;;;;;;-148.33;100.00;56587.81;4990811;28;20576;-65
2022/12/12 09:04:48;;;;;;;30.27;17.30;;;;;;;-148.33;100.00;56587.81;4991100;28;20085;-65
2022/12/12 09:07:13;;;;;;;30.10;15.93;;;;;;;-148.33;100.00;56587.81;4990452;28;20491;-65
2022/12/12 09:09:39;;;;;;;30.47;16.77;;;;;;;-148.33;100.00;56587.81;4978661;28;20080;-65
2022/12/12 09:12:04;;;;;;;28.47;17.07;;;;;;;-148.33;100.00;56587.81;4990206;28;20026;-65
2022/12/12 09:14:29;;;;;;;34.47;17.63;;;;;;;-148.33;100.00;56587.81;4991191;28;20030;-65
2022/12/12 09:16:55;;;;;;;28.53;16.03;;;;;;;-148.33;100.00;56587.81;4990804;28;20113;-65
2022/12/12 09:19:20;;;;;;;32.53;16.00;;;;;;;-148.33;100.00;56587.81;4987968;28;20030;-65
2022/12/12 09:21:45;;;;;;;31.57;16.53;;;;;;;-148.33;100.00;56587.81;4990983;28;20033;-65
2022/12/12 09:24:10;;;;;;;30.57;16.93;;;;;;;-148.33;100.00;56587.81;4991671;28;20026;-65
2022/12/12 09:26:36;;;;;;;30.50;14.90;;;;;;;-148.33;100.00;56587.81;4990170;28;20291;-65
2022/12/12 09:29:01;;;;;;;27.83;15.07;;;;;;;-148.33;100.00;56587.81;4991188;28;20044;-65
2022/12/12 09:31:26;;;;;;;30.77;15.50;;;;;;;-148.33;100.00;56587.81;4977363;28;20533;-65
2022/12/12 09:33:52;;;;;;;27.37;15.37;;;;;;;-148.33;100.00;56587.81;4989976;28;20421;-65
2022/12/12 09:36:18;;;;;;;26.63;15.03;;;;;;;-148.33;100.00;56587.81;4990311;28;20514;-65
2022/12/12 09:38:43;;;;;;;26.40;14.30;;;;;;;-148.33;100.00;56587.81;4990510;28;20517;-65
2022/12/12 09:41:08;;;;;;;27.73;14.97;;;;;;;-148.33;100.00;56587.81;4989560;28;20085;-65
2022/12/12 09:43:39;;;;;;;27.93;14.30;;;;;;;-148.33;100.00;56587.81;4988546;28;20530;-65
2022/12/12 09:46:14;;;;;;;27.52;13.43;;;;;;;-148.33;100.00;56587.81;4990662;28;20049;-64
2022/12/12 09:48:44;;;;;;;25.63;13.93;;;;;;;-148.33;100.00;56587.81;4990604;28;20375;-65
2022/12/12 09:51:10;;;;;;;28.37;15.73;;;;;;;-148.33;100.00;56587.81;4989878;28;20091;-65
2022/12/12 09:53:37;;;;;;;24.73;13.53;;;;;;;-148.33;100.00;56587.81;4989268;28;20545;-65
2022/12/12 09:56:28;;;;;;;28.00;14.40;;;;;;;-148.33;100.00;56587.81;4990458;28;20493;-65
2022/12/12 09:59:07;;;;;;;27.48;13.93;;;;;;;-148.33;100.00;56587.81;4990266;28;20026;-65
2022/12/12 10:01:55;;;;;;;28.87;14.13;;;;;;;-148.33;100.00;56587.81;4989731;28;20022;-65
2022/12/12 10:04:34;;;;;;;22.87;13.00;;;;;;;-148.33;100.00;56587.81;4989629;28;20022;-65
2022/12/12 10:07:08;;;;;;;24.37;14.47;;;;;;;-148.33;100.00;56587.81;4990426;28;20042;-65
2022/12/12 10:09:53;;;;;;;23.33;13.10;;;;;;;-148.33;100.00;56587.81;4989981;28;20034;-65
2022/12/12 10:12:20;;;;;;;24.00;13.60;;;;;;;-148.33;100.00;56587.81;4989385;28;20404;-65
2022/12/12 10:15:07;;;;;;;26.30;12.83;;;;;;;-148.33;100.00;56587.81;4989424;28;20616;-65
2022/12/12 10:17:39;;;;;;;24.67;13.63;;;;;;;-148.33;100.00;56587.81;4989734;28;20023;-65
2022/12/12 10:20:13;;;;;;;25.10;13.37;;;;;;;-148.33;100.00;56587.81;4989951;28;20018;-65
2022/12/12 10:22:52;;;;;;;22.67;13.20;;;;;;;-148.33;100.00;56587.81;4990316;28;20014;-65
2022/12/12 10:25:23;;;;;;;23.57;11.77;;;;;;;-148.33;100.00;56587.81;4985129;28;20019;-65
2022/12/12 10:28:01;;;;;;;22.05;11.88;;;;;;;-148.33;100.00;56587.81;4989641;28;20486;-65
2022/12/12 10:30:30;;;;;;;23.77;12.33;;;;;;;-148.33;100.00;56587.81;4987423;28;20100;-65
2022/12/12 10:33:03;;;;;;;21.40;11.00;;;;;;;-148.33;100.00;56587.81;4987328;28;20030;-65
2022/12/12 10:35:42;;;;;;;23.87;11.07;;;;;;;-148.33;100.00;56587.81;4987141;28;20041;-65
2022/12/12 10:38:22;;;;;;;25.73;11.83;;;;;;;-148.33;100.00;56587.81;4989345;28;20034;-65
2022/12/12 10:41:02;;;;;;;23.40;11.20;;;;;;;-148.33;100.00;56587.81;4988698;28;20022;-65
2022/12/12 10:43:38;;;;;;;20.25;10.02;;;;;;;-148.33;100.00;56587.81;4987296;28;20022;-65
2022/12/12 10:46:26;;;;;;;18.83;10.20;;;;;;;-148.33;100.00;56587.81;4988992;28;20347;-65
2022/12/12 10:48:52;;;;;;;20.30;10.70;;;;;;;-148.33;100.00;56587.81;4981878;28;20514;-65
2022/12/12 10:51:21;;;;;;;22.93;11.97;;;;;;;-148.33;100.00;56587.81;4989083;28;20028;-65
2022/12/12 10:53:47;;;;;;;18.23;11.00;;;;;;;-148.33;100.00;56587.81;4988831;28;20034;-65
2022/12/12 10:56:21;;;;;;;19.73;11.57;;;;;;;-148.33;100.00;56587.81;4989071;28;20022;-65
2022/12/12 10:58:55;;;;;;;23.83;11.57;;;;;;;-148.33;100.00;56587.81;4989103;28;20056;-65
2022/12/12 11:01:31;;;;;;;20.83;11.80;;;;;;;-148.33;100.00;56587.81;4988157;28;20022;-63
2022/12/12 11:03:58;;;;;;;20.20;10.93;;;;;;;-148.33;100.00;56587.81;4988957;28;20026;-63
2022/12/12 11:06:36;;;;;;;18.90;10.80;;;;;;;-148.33;100.00;56587.81;4989677;28;20033;-63
2022/12/12 11:09:21;;;;;;;21.43;11.33;;;;;;;-148.33;100.00;56587.81;4989249;28;20026;-63
2022/12/12 11:11:59;;;;;;;25.47;12.77;;;;;;;-148.33;100.00;56587.81;4988539;28;20383;-65
2022/12/12 11:14:34;;;;;;;19.07;10.77;;;;;;;-148.33;100.00;56587.81;4988057;28;20478;-65
2022/12/12 11:17:00;;;;;;;20.57;11.60;;;;;;;-148.33;100.00;56587.81;4988735;28;20540;-65
2022/12/12 11:19:34;;;;;;;19.27;11.57;;;;;;;-148.33;100.00;56587.81;4989364;28;20033;-65